sim
Sign-in with your pilot id or email,
or register
Callsign
Passwort

Schedule Details

Flight Number: OEO8613
Departure: Tirana International Airport (LATI) at 10:55
Arrival: Munich Airport (EDDM) at 12:55

Weather Information
Getting current METAR information for LATI 230920Z 15010KT 9999 FEW040 SCT090 24/19 Q1015 NOSIG
Getting current METAR information for EDDM 230920Z 26009KT 6000 SHRA SCT012 FEW015CB BKN020 15/14 Q1011 TEMPO 4000

Schedule Frequency

Route Map